This is the latest recevied weather packets stored in our database for station/object R6HABA-13. If no packets are shown the sender has not sent any weather packets the latest 10 day(s).
| Time | Temp. | Humidity | Pressure | Rain* | Wind** | Luminosity | Snow |
|---|---|---|---|---|---|---|---|
| 1777706103 | 8.33° C | 57% | 1023 hPa | - | 3.58 m/s, 247° | - | - |
| 1777705334 | -17.78° C | 62% | 1023 hPa | - | 3.13 m/s, 246° | - | - |
| 1777704302 | 7.22° C | 62% | 1023 hPa | - | 3.13 m/s, 246° | - | - |
| 1777703402 | 7.22° C | 62% | 1023 hPa | - | 3.13 m/s, 246° | - | - |
| 1777702502 | 7.22° C | 62% | 1023 hPa | - | 3.13 m/s, 246° | - | - |
| 1777701603 | 7.22° C | 62% | 1023 hPa | - | 3.13 m/s, 246° | - | - |
| 1777700703 | 7.22° C | 62% | 1023 hPa | - | 3.13 m/s, 246° | - | - |
| 1777699804 | 2.78° C | 83% | 1023 hPa | - | 2.24 m/s, 244° | - | - |
| 1777698903 | 2.78° C | 83% | 1023 hPa | - | 2.24 m/s, 244° | - | - |
| 1777698003 | 2.78° C | 83% | 1023 hPa | - | 2.24 m/s, 244° | - | - |
| 1777697103 | 2.78° C | 83% | 1023 hPa | - | 2.24 m/s, 244° | - | - |
| 1777696202 | 2.78° C | 83% | 1023 hPa | - | 2.24 m/s, 244° | - | - |
| 1777695302 | 2.78° C | 83% | 1023 hPa | - | 2.24 m/s, 244° | - | - |
| 1777694403 | 2.78° C | 83% | 1023 hPa | - | 2.24 m/s, 244° | - | - |
| 1777693502 | 2.78° C | 83% | 1023 hPa | - | 2.68 m/s, 244° | - | - |
| 1777693125 | -17.78° C | 89% | 0 hPa | - | 0 m/s | - | - |
| 1777691703 | 2.22° C | 89% | 1023 hPa | - | 1.79 m/s, 261° | - | - |
| 1777690802 | 2.22° C | 89% | 1024 hPa | - | 1.79 m/s, 261° | - | - |
| 1777689903 | 2.22° C | 89% | 1024 hPa | - | 1.79 m/s, 261° | - | - |
| 1777689003 | 2.22° C | 89% | 1024 hPa | - | 1.79 m/s, 261° | - | - |
| 1777664457 | -17.78° C | - | 0 hPa | - | 0 m/s | - | - |
| 1777660203 | 4.44° C | 77% | 1023 hPa | - | 1.34 m/s, 279° | - | - |
| 1777659563 | -17.78° C | - | 1022 hPa | - | 1.34 m/s, 280° | - | - |
| 1777657503 | 5° C | 73% | 1022 hPa | - | 1.34 m/s, 280° | - | - |
| 1777655834 | -17.78° C | 65% | 1021 hPa | - | 1.34 m/s, 283° | - | - |
* Rain since midnight (hover to see other rain measurements)
** Current wind speed in m/s (hover to see current wind gust speed)